sensor_id;sensor_type;location;lat;lon;timestamp;pressure;altitude;pressure_sealevel;temperature;humidity
21096;BME280;10706;49.036;12.112;2024-03-06T00:02:12;97585.94;;;9.93;73.45
21096;BME280;10706;49.036;12.112;2024-03-06T00:04:38;97585.44;;;10.08;74.11
21096;BME280;10706;49.036;12.112;2024-03-06T00:07:04;97580.09;;;10.08;73.53
21096;BME280;10706;49.036;12.112;2024-03-06T00:09:30;97586.63;;;9.88;73.58
21096;BME280;10706;49.036;12.112;2024-03-06T00:11:56;97595.91;;;9.62;75.19
21096;BME280;10706;49.036;12.112;2024-03-06T00:14:23;97604.13;;;9.84;74.17
21096;BME280;10706;49.036;12.112;2024-03-06T00:16:50;97602.72;;;9.23;77.63
21096;BME280;10706;49.036;12.112;2024-03-06T00:19:19;97600.22;;;9.63;75.53
21096;BME280;10706;49.036;12.112;2024-03-06T00:21:46;97608.19;;;9.40;75.96
21096;BME280;10706;49.036;12.112;2024-03-06T00:24:15;97605.47;;;9.04;78.14
21096;BME280;10706;49.036;12.112;2024-03-06T00:26:43;97607.81;;;9.24;77.79
21096;BME280;10706;49.036;12.112;2024-03-06T00:29:10;97611.66;;;9.28;77.70
21096;BME280;10706;49.036;12.112;2024-03-06T00:31:36;97623.69;;;9.19;78.01
21096;BME280;10706;49.036;12.112;2024-03-06T00:34:02;97618.03;;;9.51;76.80
21096;BME280;10706;49.036;12.112;2024-03-06T00:36:29;97619.44;;;9.53;75.68
21096;BME280;10706;49.036;12.112;2024-03-06T00:38:54;97624.72;;;9.18;76.73
21096;BME280;10706;49.036;12.112;2024-03-06T00:41:20;97626.63;;;9.41;77.16
21096;BME280;10706;49.036;12.112;2024-03-06T00:43:46;97628.03;;;9.67;75.78
21096;BME280;10706;49.036;12.112;2024-03-06T00:46:12;97623.38;;;9.86;74.33
21096;BME280;10706;49.036;12.112;2024-03-06T00:48:38;97631.50;;;9.91;75.04
21096;BME280;10706;49.036;12.112;2024-03-06T00:51:07;97629.75;;;9.97;74.17
21096;BME280;10706;49.036;12.112;2024-03-06T00:53:35;97627.19;;;9.90;74.05
21096;BME280;10706;49.036;12.112;2024-03-06T00:56:02;97631.25;;;9.93;74.91
21096;BME280;10706;49.036;12.112;2024-03-06T00:58:28;97627.66;;;9.99;73.12
21096;BME280;10706;49.036;12.112;2024-03-06T01:00:54;97626.38;;;10.02;73.91
21096;BME280;10706;49.036;12.112;2024-03-06T01:03:20;97615.84;;;9.71;74.13
21096;BME280;10706;49.036;12.112;2024-03-06T01:05:46;97624.63;;;9.96;73.67
21096;BME280;10706;49.036;12.112;2024-03-06T01:08:12;97609.47;;;9.49;75.01
21096;BME280;10706;49.036;12.112;2024-03-06T01:10:38;97613.19;;;9.60;74.21
21096;BME280;10706;49.036;12.112;2024-03-06T01:13:04;97614.44;;;9.33;76.59
21096;BME280;10706;49.036;12.112;2024-03-06T01:15:30;97613.19;;;9.71;74.95
21096;BME280;10706;49.036;12.112;2024-03-06T01:17:56;97614.22;;;9.35;75.63
21096;BME280;10706;49.036;12.112;2024-03-06T01:20:23;97610.31;;;8.95;78.06
21096;BME280;10706;49.036;12.112;2024-03-06T01:22:49;97620.25;;;8.88;78.84
21096;BME280;10706;49.036;12.112;2024-03-06T01:25:15;97618.34;;;9.19;77.17
21096;BME280;10706;49.036;12.112;2024-03-06T01:27:41;97616.34;;;9.03;78.12
21096;BME280;10706;49.036;12.112;2024-03-06T01:30:07;97616.38;;;9.14;77.59
21096;BME280;10706;49.036;12.112;2024-03-06T01:32:33;97609.06;;;9.10;77.47
21096;BME280;10706;49.036;12.112;2024-03-06T01:34:59;97616.81;;;9.00;77.13
21096;BME280;10706;49.036;12.112;2024-03-06T01:37:25;97628.59;;;8.92;78.33
21096;BME280;10706;49.036;12.112;2024-03-06T01:39:51;97617.13;;;8.91;77.41
21096;BME280;10706;49.036;12.112;2024-03-06T01:42:18;97634.28;;;8.95;77.13
21096;BME280;10706;49.036;12.112;2024-03-06T01:44:43;97626.53;;;8.64;79.48
21096;BME280;10706;49.036;12.112;2024-03-06T01:47:09;97622.63;;;8.48;79.65
21096;BME280;10706;49.036;12.112;2024-03-06T01:49:35;97626.78;;;8.74;78.23
21096;BME280;10706;49.036;12.112;2024-03-06T01:52:01;97620.56;;;9.10;78.27
21096;BME280;10706;49.036;12.112;2024-03-06T01:54:29;97621.56;;;8.67;79.71
21096;BME280;10706;49.036;12.112;2024-03-06T01:56:57;97616.94;;;8.44;80.76
21096;BME280;10706;49.036;12.112;2024-03-06T01:59:25;97620.06;;;9.02;78.38
21096;BME280;10706;49.036;12.112;2024-03-06T02:01:53;97619.69;;;8.86;77.55
21096;BME280;10706;49.036;12.112;2024-03-06T02:04:20;97620.13;;;8.83;77.88
21096;BME280;10706;49.036;12.112;2024-03-06T02:06:46;97618.13;;;9.09;77.50
21096;BME280;10706;49.036;12.112;2024-03-06T02:09:13;97614.06;;;8.76;77.68
21096;BME280;10706;49.036;12.112;2024-03-06T02:11:39;97607.91;;;9.18;77.84
21096;BME280;10706;49.036;12.112;2024-03-06T02:14:06;97613.59;;;8.67;79.03
21096;BME280;10706;49.036;12.112;2024-03-06T02:16:36;97610.78;;;9.04;78.01
21096;BME280;10706;49.036;12.112;2024-03-06T02:19:02;97609.03;;;8.98;77.50
21096;BME280;10706;49.036;12.112;2024-03-06T02:21:28;97614.59;;;8.97;78.40
21096;BME280;10706;49.036;12.112;2024-03-06T02:23:54;97605.59;;;9.21;77.57
21096;BME280;10706;49.036;12.112;2024-03-06T02:26:21;97611.78;;;9.22;76.31
21096;BME280;10706;49.036;12.112;2024-03-06T02:28:54;97614.19;;;9.23;76.70
21096;BME280;10706;49.036;12.112;2024-03-06T02:31:20;97607.72;;;8.77;77.60
21096;BME280;10706;49.036;12.112;2024-03-06T02:33:47;97608.94;;;8.63;78.99
21096;BME280;10706;49.036;12.112;2024-03-06T02:36:14;97607.13;;;8.45;80.18
21096;BME280;10706;49.036;12.112;2024-03-06T02:38:41;97604.53;;;8.56;80.20
21096;BME280;10706;49.036;12.112;2024-03-06T02:41:07;97604.53;;;8.56;80.05
21096;BME280;10706;49.036;12.112;2024-03-06T02:43:33;97607.63;;;8.35;80.50
21096;BME280;10706;49.036;12.112;2024-03-06T02:45:59;97600.81;;;8.57;80.00
21096;BME280;10706;49.036;12.112;2024-03-06T02:48:25;97600.28;;;8.67;79.14
21096;BME280;10706;49.036;12.112;2024-03-06T02:50:51;97604.94;;;8.35;80.01
21096;BME280;10706;49.036;12.112;2024-03-06T02:53:17;97602.41;;;8.77;78.61
21096;BME280;10706;49.036;12.112;2024-03-06T02:55:43;97605.06;;;8.47;80.85
21096;BME280;10706;49.036;12.112;2024-03-06T02:58:10;97594.28;;;8.72;78.52
21096;BME280;10706;49.036;12.112;2024-03-06T03:00:36;97597.22;;;8.94;77.66
21096;BME280;10706;49.036;12.112;2024-03-06T03:03:02;97594.88;;;8.86;78.61
21096;BME280;10706;49.036;12.112;2024-03-06T03:05:28;97594.94;;;8.98;77.42
21096;BME280;10706;49.036;12.112;2024-03-06T03:07:54;97586.34;;;8.95;78.28
21096;BME280;10706;49.036;12.112;2024-03-06T03:10:20;97590.16;;;8.88;78.23
21096;BME280;10706;49.036;12.112;2024-03-06T03:12:46;97595.72;;;8.56;80.27
21096;BME280;10706;49.036;12.112;2024-03-06T03:15:12;97596.81;;;9.09;78.57
21096;BME280;10706;49.036;12.112;2024-03-06T03:17:38;97598.53;;;9.03;76.80
21096;BME280;10706;49.036;12.112;2024-03-06T03:20:05;97595.09;;;9.26;77.03
21096;BME280;10706;49.036;12.112;2024-03-06T03:22:37;97595.22;;;9.20;77.33
21096;BME280;10706;49.036;12.112;2024-03-06T03:25:06;97601.00;;;9.28;76.53
21096;BME280;10706;49.036;12.112;2024-03-06T03:27:33;97595.88;;;9.15;77.43
21096;BME280;10706;49.036;12.112;2024-03-06T03:29:59;97588.03;;;9.20;76.69
21096;BME280;10706;49.036;12.112;2024-03-06T03:32:25;97598.41;;;8.56;79.34
21096;BME280;10706;49.036;12.112;2024-03-06T03:34:50;97598.28;;;8.63;79.32
21096;BME280;10706;49.036;12.112;2024-03-06T03:37:16;97614.34;;;8.86;78.09
21096;BME280;10706;49.036;12.112;2024-03-06T03:39:44;97606.03;;;8.64;78.96
21096;BME280;10706;49.036;12.112;2024-03-06T03:42:10;97610.81;;;8.74;78.46
21096;BME280;10706;49.036;12.112;2024-03-06T03:44:36;97611.19;;;8.47;78.50
21096;BME280;10706;49.036;12.112;2024-03-06T03:47:02;97610.00;;;8.43;78.85
21096;BME280;10706;49.036;12.112;2024-03-06T03:49:29;97614.00;;;8.15;80.96
21096;BME280;10706;49.036;12.112;2024-03-06T03:51:55;97610.72;;;7.76;82.31
21096;BME280;10706;49.036;12.112;2024-03-06T03:54:21;97619.00;;;7.68;83.23
21096;BME280;10706;49.036;12.112;2024-03-06T03:56:47;97618.66;;;8.02;81.41
21096;BME280;10706;49.036;12.112;2024-03-06T03:59:13;97622.44;;;7.94;82.09
21096;BME280;10706;49.036;12.112;2024-03-06T04:01:40;97618.44;;;7.85;81.76
21096;BME280;10706;49.036;12.112;2024-03-06T04:04:06;97627.47;;;7.58;83.44
21096;BME280;10706;49.036;12.112;2024-03-06T04:06:34;97621.38;;;8.13;80.68
21096;BME280;10706;49.036;12.112;2024-03-06T04:08:59;97630.97;;;8.14;80.98
21096;BME280;10706;49.036;12.112;2024-03-06T04:11:26;97634.38;;;8.22;80.56
21096;BME280;10706;49.036;12.112;2024-03-06T04:13:52;97632.97;;;8.19;80.07
21096;BME280;10706;49.036;12.112;2024-03-06T04:16:18;97634.69;;;8.13;80.72
21096;BME280;10706;49.036;12.112;2024-03-06T04:18:44;97631.13;;;8.20;79.32
21096;BME280;10706;49.036;12.112;2024-03-06T04:21:11;97630.91;;;8.40;79.66
21096;BME280;10706;49.036;12.112;2024-03-06T04:23:37;97640.09;;;8.44;78.33
21096;BME280;10706;49.036;12.112;2024-03-06T04:26:04;97640.88;;;7.89;80.29
21096;BME280;10706;49.036;12.112;2024-03-06T04:28:30;97635.84;;;7.99;80.09
21096;BME280;10706;49.036;12.112;2024-03-06T04:30:56;97642.81;;;8.00;80.01
21096;BME280;10706;49.036;12.112;2024-03-06T04:33:22;97637.19;;;8.08;80.49
21096;BME280;10706;49.036;12.112;2024-03-06T04:35:48;97640.41;;;7.92;81.45
21096;BME280;10706;49.036;12.112;2024-03-06T04:38:13;97633.16;;;7.62;82.44
21096;BME280;10706;49.036;12.112;2024-03-06T04:40:39;97636.28;;;7.52;82.65
21096;BME280;10706;49.036;12.112;2024-03-06T04:43:05;97642.44;;;7.53;82.80
21096;BME280;10706;49.036;12.112;2024-03-06T04:45:33;97646.09;;;7.77;82.83
21096;BME280;10706;49.036;12.112;2024-03-06T04:47:59;97647.31;;;7.56;82.99
21096;BME280;10706;49.036;12.112;2024-03-06T04:50:25;97647.25;;;7.37;83.46
21096;BME280;10706;49.036;12.112;2024-03-06T04:52:52;97651.50;;;7.45;82.90
21096;BME280;10706;49.036;12.112;2024-03-06T04:55:18;97649.47;;;7.40;83.08
21096;BME280;10706;49.036;12.112;2024-03-06T04:57:48;97655.06;;;7.32;83.96
21096;BME280;10706;49.036;12.112;2024-03-06T05:00:15;97654.78;;;7.40;84.67
21096;BME280;10706;49.036;12.112;2024-03-06T05:02:42;97660.28;;;7.46;84.00
21096;BME280;10706;49.036;12.112;2024-03-06T05:05:09;97662.03;;;7.58;83.53
21096;BME280;10706;49.036;12.112;2024-03-06T05:07:35;97665.69;;;7.32;84.15
21096;BME280;10706;49.036;12.112;2024-03-06T05:10:01;97675.88;;;7.35;84.60
21096;BME280;10706;49.036;12.112;2024-03-06T05:12:27;97684.56;;;7.74;82.81
21096;BME280;10706;49.036;12.112;2024-03-06T05:14:55;97674.69;;;7.82;83.85
21096;BME280;10706;49.036;12.112;2024-03-06T05:17:21;97687.06;;;8.31;81.78
21096;BME280;10706;49.036;12.112;2024-03-06T05:19:48;97686.75;;;8.21;80.98
21096;BME280;10706;49.036;12.112;2024-03-06T05:22:15;97686.13;;;8.44;80.68
21096;BME280;10706;49.036;12.112;2024-03-06T05:24:43;97679.88;;;8.69;79.69
21096;BME280;10706;49.036;12.112;2024-03-06T05:27:09;97684.63;;;8.97;78.85
21096;BME280;10706;49.036;12.112;2024-03-06T05:29:37;97681.88;;;9.04;78.12
21096;BME280;10706;49.036;12.112;2024-03-06T05:32:03;97680.88;;;9.05;78.48
21096;BME280;10706;49.036;12.112;2024-03-06T05:34:29;97684.78;;;9.02;77.42
21096;BME280;10706;49.036;12.112;2024-03-06T05:36:55;97688.94;;;8.98;77.14
21096;BME280;10706;49.036;12.112;2024-03-06T05:39:22;97686.88;;;9.12;75.83
21096;BME280;10706;49.036;12.112;2024-03-06T05:41:48;97693.00;;;9.01;77.42
21096;BME280;10706;49.036;12.112;2024-03-06T05:44:14;97687.81;;;8.75;77.51
21096;BME280;10706;49.036;12.112;2024-03-06T05:46:40;97686.66;;;8.83;78.31
21096;BME280;10706;49.036;12.112;2024-03-06T05:49:06;97692.22;;;9.12;75.76
21096;BME280;10706;49.036;12.112;2024-03-06T05:51:32;97683.75;;;9.03;76.36
21096;BME280;10706;49.036;12.112;2024-03-06T05:53:58;97696.19;;;8.91;76.75
21096;BME280;10706;49.036;12.112;2024-03-06T05:56:24;97691.97;;;9.02;76.34
21096;BME280;10706;49.036;12.112;2024-03-06T05:58:50;97703.41;;;9.02;77.22
21096;BME280;10706;49.036;12.112;2024-03-06T06:01:17;97707.25;;;8.76;77.37
21096;BME280;10706;49.036;12.112;2024-03-06T06:03:49;97712.63;;;8.88;77.48
21096;BME280;10706;49.036;12.112;2024-03-06T06:06:16;97714.00;;;8.60;77.71
21096;BME280;10706;49.036;12.112;2024-03-06T06:08:43;97724.66;;;9.09;76.89
21096;BME280;10706;49.036;12.112;2024-03-06T06:11:10;97723.34;;;9.00;77.69
21096;BME280;10706;49.036;12.112;2024-03-06T06:13:37;97723.13;;;9.01;76.49
21096;BME280;10706;49.036;12.112;2024-03-06T06:16:03;97728.69;;;9.11;76.12
21096;BME280;10706;49.036;12.112;2024-03-06T06:18:29;97732.41;;;9.41;74.71
21096;BME280;10706;49.036;12.112;2024-03-06T06:20:56;97733.63;;;9.26;75.30
21096;BME280;10706;49.036;12.112;2024-03-06T06:23:22;97734.34;;;9.33;76.26
21096;BME280;10706;49.036;12.112;2024-03-06T06:25:51;97731.03;;;9.50;74.81
21096;BME280;10706;49.036;12.112;2024-03-06T06:28:17;97734.50;;;9.50;74.78
21096;BME280;10706;49.036;12.112;2024-03-06T06:30:43;97735.91;;;9.23;75.66
21096;BME280;10706;49.036;12.112;2024-03-06T06:33:09;97739.50;;;9.59;75.01
21096;BME280;10706;49.036;12.112;2024-03-06T06:35:35;97740.69;;;9.32;76.46
21096;BME280;10706;49.036;12.112;2024-03-06T06:38:01;97738.94;;;9.26;75.51
21096;BME280;10706;49.036;12.112;2024-03-06T06:40:28;97746.13;;;9.80;74.23
21096;BME280;10706;49.036;12.112;2024-03-06T06:42:54;97744.09;;;9.82;73.59
21096;BME280;10706;49.036;12.112;2024-03-06T06:45:21;97745.88;;;9.58;75.63
21096;BME280;10706;49.036;12.112;2024-03-06T06:47:51;97745.69;;;9.83;74.36
21096;BME280;10706;49.036;12.112;2024-03-06T06:50:17;97741.88;;;9.90;74.32
21096;BME280;10706;49.036;12.112;2024-03-06T06:52:46;97750.25;;;10.29;72.64
21096;BME280;10706;49.036;12.112;2024-03-06T06:55:13;97745.28;;;10.57;72.03
21096;BME280;10706;49.036;12.112;2024-03-06T06:57:41;97754.31;;;10.56;72.21
21096;BME280;10706;49.036;12.112;2024-03-06T07:00:10;97751.75;;;10.49;72.31
21096;BME280;10706;49.036;12.112;2024-03-06T07:02:40;97750.56;;;10.68;71.50
21096;BME280;10706;49.036;12.112;2024-03-06T07:05:09;97745.28;;;10.33;70.99
21096;BME280;10706;49.036;12.112;2024-03-06T07:07:36;97747.38;;;10.31;70.43
21096;BME280;10706;49.036;12.112;2024-03-06T07:10:04;97753.38;;;10.50;70.82
21096;BME280;10706;49.036;12.112;2024-03-06T07:12:30;97750.63;;;10.33;70.08
21096;BME280;10706;49.036;12.112;2024-03-06T07:14:57;97751.94;;;10.71;70.43
21096;BME280;10706;49.036;12.112;2024-03-06T07:17:26;97748.06;;;10.38;71.13
21096;BME280;10706;49.036;12.112;2024-03-06T07:19:52;97751.19;;;10.23;72.01
21096;BME280;10706;49.036;12.112;2024-03-06T07:22:19;97751.84;;;10.19;70.77
21096;BME280;10706;49.036;12.112;2024-03-06T07:24:45;97758.41;;;10.35;69.60
21096;BME280;10706;49.036;12.112;2024-03-06T07:27:11;97765.41;;;9.82;72.06
21096;BME280;10706;49.036;12.112;2024-03-06T07:29:43;97766.34;;;10.11;70.64
21096;BME280;10706;49.036;12.112;2024-03-06T07:32:09;97765.34;;;10.59;69.88
21096;BME280;10706;49.036;12.112;2024-03-06T07:34:36;97765.00;;;10.56;69.04
21096;BME280;10706;49.036;12.112;2024-03-06T07:37:02;97772.41;;;10.65;69.44
21096;BME280;10706;49.036;12.112;2024-03-06T07:39:28;97777.66;;;10.37;69.49
21096;BME280;10706;49.036;12.112;2024-03-06T07:41:57;97776.94;;;10.29;70.12
21096;BME280;10706;49.036;12.112;2024-03-06T07:44:23;97778.09;;;10.45;69.31
21096;BME280;10706;49.036;12.112;2024-03-06T07:46:49;97780.63;;;10.28;71.00
21096;BME280;10706;49.036;12.112;2024-03-06T07:49:15;97784.03;;;10.59;69.63
21096;BME280;10706;49.036;12.112;2024-03-06T07:51:41;97787.38;;;10.66;69.08
21096;BME280;10706;49.036;12.112;2024-03-06T07:54:07;97796.19;;;10.67;67.75
21096;BME280;10706;49.036;12.112;2024-03-06T07:56:33;97794.50;;;9.83;71.47
21096;BME280;10706;49.036;12.112;2024-03-06T07:59:00;97798.03;;;10.78;69.19
21096;BME280;10706;49.036;12.112;2024-03-06T08:01:27;97800.03;;;11.23;67.48
21096;BME280;10706;49.036;12.112;2024-03-06T08:03:55;97798.75;;;10.62;66.95
21096;BME280;10706;49.036;12.112;2024-03-06T08:06:21;97809.03;;;10.94;67.80
21096;BME280;10706;49.036;12.112;2024-03-06T08:08:47;97814.91;;;10.67;67.11
21096;BME280;10706;49.036;12.112;2024-03-06T08:11:14;97813.50;;;10.76;67.55
21096;BME280;10706;49.036;12.112;2024-03-06T08:13:40;97817.81;;;10.42;67.60
21096;BME280;10706;49.036;12.112;2024-03-06T08:16:07;97813.69;;;10.86;67.33
21096;BME280;10706;49.036;12.112;2024-03-06T08:18:34;97815.88;;;11.01;64.75
21096;BME280;10706;49.036;12.112;2024-03-06T08:21:01;97820.66;;;10.99;65.59
21096;BME280;10706;49.036;12.112;2024-03-06T08:23:28;97822.84;;;11.43;65.25
21096;BME280;10706;49.036;12.112;2024-03-06T08:25:54;97831.09;;;11.01;65.83
21096;BME280;10706;49.036;12.112;2024-03-06T08:28:21;97824.88;;;10.83;65.88
21096;BME280;10706;49.036;12.112;2024-03-06T08:30:47;97833.84;;;11.18;65.87
21096;BME280;10706;49.036;12.112;2024-03-06T08:33:13;97824.91;;;10.36;68.92
21096;BME280;10706;49.036;12.112;2024-03-06T08:35:40;97834.84;;;11.40;65.79
21096;BME280;10706;49.036;12.112;2024-03-06T08:38:06;97833.63;;;11.77;64.96
21096;BME280;10706;49.036;12.112;2024-03-06T08:40:32;97828.78;;;11.45;65.13
21096;BME280;10706;49.036;12.112;2024-03-06T08:42:59;97831.22;;;11.75;63.99
21096;BME280;10706;49.036;12.112;2024-03-06T08:45:25;97834.16;;;11.33;65.69
21096;BME280;10706;49.036;12.112;2024-03-06T08:47:51;97838.00;;;11.95;62.90
21096;BME280;10706;49.036;12.112;2024-03-06T08:50:19;97832.66;;;12.12;62.68
21096;BME280;10706;49.036;12.112;2024-03-06T08:52:46;97837.03;;;12.35;62.30
21096;BME280;10706;49.036;12.112;2024-03-06T08:55:12;97836.41;;;12.11;62.28
21096;BME280;10706;49.036;12.112;2024-03-06T08:57:39;97836.88;;;12.58;61.49
21096;BME280;10706;49.036;12.112;2024-03-06T09:00:06;97831.50;;;12.97;59.96
21096;BME280;10706;49.036;12.112;2024-03-06T09:02:39;97840.53;;;12.91;58.34
21096;BME280;10706;49.036;12.112;2024-03-06T09:05:06;97841.59;;;11.89;62.16
21096;BME280;10706;49.036;12.112;2024-03-06T09:07:33;97839.88;;;12.11;61.13
21096;BME280;10706;49.036;12.112;2024-03-06T09:10:04;97843.38;;;12.29;60.76
21096;BME280;10706;49.036;12.112;2024-03-06T09:12:33;97846.34;;;11.98;60.55
21096;BME280;10706;49.036;12.112;2024-03-06T09:15:01;97847.03;;;12.39;60.04
21096;BME280;10706;49.036;12.112;2024-03-06T09:17:27;97849.13;;;12.20;61.08
21096;BME280;10706;49.036;12.112;2024-03-06T09:19:54;97842.69;;;12.55;60.43
21096;BME280;10706;49.036;12.112;2024-03-06T09:22:20;97852.16;;;12.80;59.98
21096;BME280;10706;49.036;12.112;2024-03-06T09:24:46;97843.50;;;13.34;57.99
21096;BME280;10706;49.036;12.112;2024-03-06T09:27:13;97848.31;;;13.32;58.00
21096;BME280;10706;49.036;12.112;2024-03-06T09:29:40;97851.78;;;13.10;57.49
21096;BME280;10706;49.036;12.112;2024-03-06T09:32:06;97846.00;;;12.79;59.47
21096;BME280;10706;49.036;12.112;2024-03-06T09:34:32;97854.34;;;12.83;57.24
21096;BME280;10706;49.036;12.112;2024-03-06T09:36:58;97851.38;;;12.62;59.34
21096;BME280;10706;49.036;12.112;2024-03-06T09:39:25;97862.00;;;12.57;58.85
21096;BME280;10706;49.036;12.112;2024-03-06T09:41:52;97860.97;;;12.41;59.21
21096;BME280;10706;49.036;12.112;2024-03-06T09:44:19;97859.00;;;12.03;59.58
21096;BME280;10706;49.036;12.112;2024-03-06T09:46:48;97850.50;;;12.57;59.21
21096;BME280;10706;49.036;12.112;2024-03-06T09:49:16;97851.97;;;12.31;59.26
21096;BME280;10706;49.036;12.112;2024-03-06T09:51:47;97850.56;;;12.79;58.78
21096;BME280;10706;49.036;12.112;2024-03-06T09:54:16;97848.47;;;12.47;59.65
21096;BME280;10706;49.036;12.112;2024-03-06T09:56:47;97851.56;;;13.34;56.82
21096;BME280;10706;49.036;12.112;2024-03-06T09:59:13;97851.13;;;13.42;57.14
21096;BME280;10706;49.036;12.112;2024-03-06T10:01:58;97852.66;;;13.38;56.27
21096;BME280;10706;49.036;12.112;2024-03-06T10:04:26;97850.69;;;13.77;54.93
21096;BME280;10706;49.036;12.112;2024-03-06T10:06:57;97843.56;;;13.39;54.60
21096;BME280;10706;49.036;12.112;2024-03-06T10:09:24;97842.25;;;13.19;54.75
21096;BME280;10706;49.036;12.112;2024-03-06T10:11:50;97852.41;;;13.89;54.13
21096;BME280;10706;49.036;12.112;2024-03-06T10:14:20;97848.63;;;13.85;53.35
21096;BME280;10706;49.036;12.112;2024-03-06T10:17:01;97841.00;;;14.04;53.48
21096;BME280;10706;49.036;12.112;2024-03-06T10:19:29;97848.06;;;14.10;52.68
21096;BME280;10706;49.036;12.112;2024-03-06T10:21:56;97852.81;;;13.75;53.25
21096;BME280;10706;49.036;12.112;2024-03-06T10:24:26;97852.78;;;13.97;51.35
21096;BME280;10706;49.036;12.112;2024-03-06T10:26:55;97858.00;;;13.82;53.68
21096;BME280;10706;49.036;12.112;2024-03-06T10:29:22;97848.00;;;14.69;51.50
21096;BME280;10706;49.036;12.112;2024-03-06T10:31:53;97847.09;;;14.96;49.53
21096;BME280;10706;49.036;12.112;2024-03-06T10:34:24;97851.72;;;13.98;51.23
21096;BME280;10706;49.036;12.112;2024-03-06T10:36:58;97857.91;;;13.28;52.97
21096;BME280;10706;49.036;12.112;2024-03-06T10:39:24;97859.72;;;12.83;54.46
21096;BME280;10706;49.036;12.112;2024-03-06T10:41:55;97861.78;;;13.59;53.79
21096;BME280;10706;49.036;12.112;2024-03-06T10:44:26;97860.88;;;13.75;52.72
21096;BME280;10706;49.036;12.112;2024-03-06T10:47:01;97858.09;;;13.65;52.15
21096;BME280;10706;49.036;12.112;2024-03-06T10:49:29;97860.22;;;13.41;52.78
21096;BME280;10706;49.036;12.112;2024-03-06T10:51:59;97867.31;;;13.74;51.99
21096;BME280;10706;49.036;12.112;2024-03-06T10:54:30;97862.66;;;14.19;51.39
21096;BME280;10706;49.036;12.112;2024-03-06T10:56:56;97869.53;;;13.83;51.18
21096;BME280;10706;49.036;12.112;2024-03-06T10:59:26;97879.63;;;13.09;52.94
21096;BME280;10706;49.036;12.112;2024-03-06T11:01:56;97873.19;;;12.88;53.30
21096;BME280;10706;49.036;12.112;2024-03-06T11:04:26;97871.84;;;13.74;52.11
21096;BME280;10706;49.036;12.112;2024-03-06T11:06:56;97871.59;;;13.48;52.30
21096;BME280;10706;49.036;12.112;2024-03-06T11:09:23;97872.25;;;13.60;53.76
21096;BME280;10706;49.036;12.112;2024-03-06T11:11:50;97873.16;;;13.71;51.42
21096;BME280;10706;49.036;12.112;2024-03-06T11:14:23;97873.63;;;13.90;51.99
21096;BME280;10706;49.036;12.112;2024-03-06T11:17:05;97865.59;;;14.23;50.91
21096;BME280;10706;49.036;12.112;2024-03-06T11:28:31;97873.06;;;13.61;53.67
21096;BME280;10706;49.036;12.112;2024-03-06T11:31:04;97866.38;;;13.64;53.38
21096;BME280;10706;49.036;12.112;2024-03-06T11:33:47;97858.06;;;14.52;50.49
21096;BME280;10706;49.036;12.112;2024-03-06T11:36:28;97858.59;;;14.54;49.01
21096;BME280;10706;49.036;12.112;2024-03-06T11:41:27;97861.44;;;14.69;48.66
21096;BME280;10706;49.036;12.112;2024-03-06T11:43:55;97858.16;;;14.30;48.78
21096;BME280;10706;49.036;12.112;2024-03-06T11:46:22;97853.69;;;14.78;47.86
21096;BME280;10706;49.036;12.112;2024-03-06T11:48:56;97861.66;;;14.63;48.68
21096;BME280;10706;49.036;12.112;2024-03-06T11:51:24;97858.88;;;15.48;46.50
21096;BME280;10706;49.036;12.112;2024-03-06T11:53:52;97858.94;;;15.00;46.59
21096;BME280;10706;49.036;12.112;2024-03-06T11:56:20;97859.75;;;15.01;45.74
21096;BME280;10706;49.036;12.112;2024-03-06T11:58:46;97857.19;;;14.78;45.79
21096;BME280;10706;49.036;12.112;2024-03-06T12:01:16;97852.34;;;14.81;45.41
21096;BME280;10706;49.036;12.112;2024-03-06T12:03:42;97857.63;;;14.65;46.53
21096;BME280;10706;49.036;12.112;2024-03-06T12:06:09;97851.88;;;15.42;45.88
21096;BME280;10706;49.036;12.112;2024-03-06T12:08:35;97850.31;;;15.56;45.81
21096;BME280;10706;49.036;12.112;2024-03-06T12:11:04;97859.13;;;15.41;45.07
21096;BME280;10706;49.036;12.112;2024-03-06T12:13:31;97851.09;;;14.51;47.69
21096;BME280;10706;49.036;12.112;2024-03-06T12:15:58;97856.06;;;15.17;45.42
21096;BME280;10706;49.036;12.112;2024-03-06T12:18:24;97854.44;;;15.84;44.98
21096;BME280;10706;49.036;12.112;2024-03-06T12:20:50;97848.03;;;16.16;45.30
21096;BME280;10706;49.036;12.112;2024-03-06T12:23:23;97867.41;;;16.49;41.64
21096;BME280;10706;49.036;12.112;2024-03-06T12:26:03;97853.22;;;15.49;43.52
21096;BME280;10706;49.036;12.112;2024-03-06T12:28:28;97848.97;;;15.64;46.46
21096;BME280;10706;49.036;12.112;2024-03-06T12:30:54;97850.06;;;17.12;43.20
21096;BME280;10706;49.036;12.112;2024-03-06T12:33:20;97851.22;;;15.98;43.68
21096;BME280;10706;49.036;12.112;2024-03-06T12:35:46;97843.16;;;16.44;41.56
21096;BME280;10706;49.036;12.112;2024-03-06T12:38:15;97850.06;;;17.12;42.19
21096;BME280;10706;49.036;12.112;2024-03-06T12:40:42;97847.94;;;17.14;40.67
21096;BME280;10706;49.036;12.112;2024-03-06T12:43:08;97849.88;;;18.47;38.48
21096;BME280;10706;49.036;12.112;2024-03-06T12:45:35;97843.28;;;19.12;36.87
21096;BME280;10706;49.036;12.112;2024-03-06T12:48:03;97847.69;;;17.65;38.79
21096;BME280;10706;49.036;12.112;2024-03-06T12:50:31;97850.06;;;18.21;37.38
21096;BME280;10706;49.036;12.112;2024-03-06T12:52:57;97846.72;;;18.00;39.12
21096;BME280;10706;49.036;12.112;2024-03-06T12:55:23;97843.13;;;15.77;42.28
21096;BME280;10706;49.036;12.112;2024-03-06T12:57:49;97845.03;;;16.43;41.10
21096;BME280;10706;49.036;12.112;2024-03-06T13:00:16;97843.78;;;17.37;39.02
21096;BME280;10706;49.036;12.112;2024-03-06T13:02:43;97851.22;;;16.23;40.74
21096;BME280;10706;49.036;12.112;2024-03-06T13:05:10;97842.00;;;17.01;39.83
21096;BME280;10706;49.036;12.112;2024-03-06T13:07:35;97845.81;;;16.64;39.64